Time;durP1;ratioP1;P1;durP2;ratioP2;P2;SDS_P1;SDS_P2;PMS_P1;PMS_P2;Temp;Humidity;BMP_temperature;BMP_pressure;BME280_temperature;BME280_humidity;BME280_pressure;Samples;Min_cycle;Max_cycle;Signal;HPM_P1;HPM_P2
2022/08/17 00:01:16;;;;;;;10.63;7.63;;;20.90;18.90;;;;;;5088809;27;20476;-64
2022/08/17 00:03:45;;;;;;;9.60;7.83;;;20.80;18.80;;;;;;5089499;28;20476;-64
2022/08/17 00:06:14;;;;;;;10.93;8.97;;;20.80;19.10;;;;;;5084853;28;20459;-63
2022/08/17 00:08:43;;;;;;;13.30;9.30;;;20.80;19.50;;;;;;5095318;28;20449;-64
2022/08/17 00:11:13;;;;;;;11.80;9.03;;;20.60;19.70;;;;;;5090468;28;20459;-64
2022/08/17 00:13:44;;;;;;;13.50;8.67;;;20.50;19.70;;;;;;5090644;28;20474;-64
2022/08/17 00:16:14;;;;;;;13.00;8.73;;;20.50;19.90;;;;;;5093649;28;20457;-64
2022/08/17 00:18:42;;;;;;;9.33;8.03;;;20.40;19.90;;;;;;5087281;28;20475;-66
2022/08/17 00:21:10;;;;;;;9.70;7.87;;;20.30;19.80;;;;;;5089347;28;20456;-64
2022/08/17 00:23:37;;;;;;;11.57;8.40;;;20.30;19.90;;;;;;5089585;28;20559;-64
2022/08/17 00:26:04;;;;;;;19.50;8.63;;;20.30;19.90;;;;;;5092136;28;20452;-63
2022/08/17 00:28:30;;;;;;;12.07;8.63;;;20.30;19.80;;;;;;5089016;28;20448;-64
2022/08/17 00:30:59;;;;;;;10.83;8.73;;;20.30;20.00;;;;;;5089987;27;20468;-65
2022/08/17 00:33:28;;;;;;;17.23;9.70;;;20.20;20.40;;;;;;5089783;28;20496;-65
2022/08/17 00:35:56;;;;;;;14.60;9.70;;;20.20;20.90;;;;;;5088247;28;20474;-63
2022/08/17 00:38:24;;;;;;;12.03;10.13;;;20.00;21.70;;;;;;5089385;28;20873;-63
2022/08/17 00:40:53;;;;;;;12.30;9.97;;;19.90;22.00;;;;;;5089686;28;20460;-64
2022/08/17 00:43:25;;;;;;;15.87;10.30;;;19.90;21.80;;;;;;5089966;28;20572;-64
2022/08/17 00:45:52;;;;;;;13.80;10.47;;;19.90;22.00;;;;;;5086190;28;20460;-64
2022/08/17 00:48:21;;;;;;;11.07;9.47;;;19.90;22.00;;;;;;5090066;28;20453;-64
2022/08/17 00:50:57;;;;;;;10.50;9.00;;;19.90;22.10;;;;;;5085171;28;20576;-64
2022/08/17 00:53:25;;;;;;;10.87;9.03;;;19.80;22.20;;;;;;5088116;28;20529;-64
2022/08/17 00:55:53;;;;;;;13.30;10.57;;;19.80;21.90;;;;;;5084449;28;20494;-64
2022/08/17 00:58:20;;;;;;;17.90;10.73;;;19.90;21.40;;;;;;5084809;28;20749;-64
2022/08/17 01:00:48;;;;;;;14.40;12.20;;;19.90;21.60;;;;;;5085338;27;20476;-64
2022/08/17 01:03:19;;;;;;;12.70;11.40;;;19.90;21.60;;;;;;5086807;28;20515;-64
2022/08/17 01:05:51;;;;;;;12.30;10.40;;;19.90;21.50;;;;;;5086422;28;20596;-65
2022/08/17 01:08:21;;;;;;;12.73;11.43;;;19.90;21.40;;;;;;5087258;28;20495;-64
2022/08/17 01:10:51;;;;;;;14.07;11.30;;;19.90;21.40;;;;;;5087605;28;20971;-65
2022/08/17 01:13:19;;;;;;;12.83;11.63;;;19.90;21.60;;;;;;5085376;28;20987;-64
2022/08/17 01:15:50;;;;;;;12.60;11.03;;;19.90;21.60;;;;;;5086411;28;20456;-65
2022/08/17 01:18:17;;;;;;;12.83;10.50;;;19.90;21.90;;;;;;5084620;28;20459;-64
2022/08/17 01:20:49;;;;;;;14.93;10.63;;;19.90;21.70;;;;;;5087529;28;20457;-65
2022/08/17 01:23:20;;;;;;;12.80;10.50;;;19.90;21.90;;;;;;5086382;28;20982;-63
2022/08/17 01:25:49;;;;;;;15.47;9.30;;;19.80;22.00;;;;;;5084344;28;20465;-64
2022/08/17 01:28:16;;;;;;;11.83;8.50;;;19.80;22.00;;;;;;5088392;28;20453;-65
2022/08/17 01:30:44;;;;;;;11.20;8.87;;;19.80;21.90;;;;;;5083283;27;20472;-64
2022/08/17 01:33:11;;;;;;;11.80;9.03;;;19.80;21.80;;;;;;5090575;28;20498;-64
2022/08/17 01:35:38;;;;;;;14.27;10.47;;;19.80;22.00;;;;;;5086808;28;20453;-63
2022/08/17 01:38:06;;;;;;;12.37;9.50;;;19.80;21.80;;;;;;5092073;28;20516;-63
2022/08/17 01:40:37;;;;;;;11.07;9.97;;;19.80;21.90;;;;;;5108069;28;20456;-63
2022/08/17 01:43:10;;;;;;;11.40;9.63;;;19.80;21.70;;;;;;5103885;28;20475;-64
2022/08/17 01:45:41;;;;;;;13.50;10.00;;;19.80;22.00;;;;;;5087726;28;21149;-63
2022/08/17 01:48:07;;;;;;;13.10;9.60;;;19.80;21.90;;;;;;5089572;28;20459;-63
2022/08/17 01:50:36;;;;;;;11.43;10.20;;;19.70;22.20;;;;;;5090564;28;20995;-64
2022/08/17 01:53:07;;;;;;;11.37;10.17;;;19.70;22.10;;;;;;5088229;28;21065;-63
2022/08/17 01:55:40;;;;;;;11.90;10.20;;;19.60;22.20;;;;;;5087033;28;20499;-64
2022/08/17 01:58:08;;;;;;;10.40;9.17;;;19.60;22.10;;;;;;5080137;28;20834;-64
2022/08/17 02:00:37;;;;;;;11.77;10.03;;;19.60;22.50;;;;;;5093618;28;20943;-64
2022/08/17 02:03:04;;;;;;;12.23;9.73;;;19.50;22.60;;;;;;5085411;28;20480;-64
2022/08/17 02:05:31;;;;;;;11.87;9.23;;;19.50;22.60;;;;;;5086384;28;20456;-64
2022/08/17 02:07:59;;;;;;;12.00;10.30;;;19.50;22.80;;;;;;5085814;28;21084;-64
2022/08/17 02:10:26;;;;;;;11.27;9.33;;;19.40;22.60;;;;;;5087322;28;20987;-64
2022/08/17 02:12:55;;;;;;;15.40;9.57;;;19.40;22.80;;;;;;5087784;28;20517;-64
2022/08/17 02:15:22;;;;;;;12.30;10.20;;;19.40;22.70;;;;;;5088446;28;20460;-64
2022/08/17 02:17:49;;;;;;;11.13;9.90;;;19.40;22.60;;;;;;5087358;28;20456;-63
2022/08/17 02:20:16;;;;;;;12.07;9.97;;;19.40;22.40;;;;;;5094341;28;20832;-63
2022/08/17 02:22:46;;;;;;;10.77;9.20;;;19.40;22.60;;;;;;5086262;28;20464;-64
2022/08/17 02:25:17;;;;;;;14.00;11.20;;;19.40;22.80;;;;;;5087142;28;20479;-65
2022/08/17 02:27:44;;;;;;;13.07;10.80;;;19.40;22.90;;;;;;5087988;28;20452;-65
2022/08/17 02:30:14;;;;;;;14.03;11.30;;;19.30;22.70;;;;;;5090000;28;20483;-64
2022/08/17 02:32:41;;;;;;;12.47;10.23;;;19.30;22.90;;;;;;5087543;28;20471;-64
2022/08/17 02:35:09;;;;;;;11.00;9.90;;;19.30;22.60;;;;;;5087780;28;20456;-64
2022/08/17 02:37:36;;;;;;;12.67;10.37;;;19.30;22.90;;;;;;5088010;28;20460;-65
2022/08/17 02:40:05;;;;;;;16.73;10.10;;;19.30;22.70;;;;;;5087864;28;20842;-65
2022/08/17 02:42:37;;;;;;;18.43;10.30;;;19.20;22.60;;;;;;5087155;28;20460;-64
2022/08/17 02:45:06;;;;;;;12.50;11.07;;;19.30;22.90;;;;;;5087352;28;20488;-64
2022/08/17 02:47:35;;;;;;;14.30;11.67;;;19.30;22.90;;;;;;5085342;28;20471;-65
2022/08/17 02:50:02;;;;;;;14.47;11.70;;;19.20;22.80;;;;;;5091430;28;20555;-63
2022/08/17 02:52:33;;;;;;;12.60;11.07;;;19.20;22.70;;;;;;5086797;28;20449;-62
2022/08/17 02:55:00;;;;;;;12.33;10.10;;;19.20;23.00;;;;;;5084490;28;20472;-63
2022/08/17 02:57:27;;;;;;;16.50;12.30;;;19.20;22.70;;;;;;5080164;28;20464;-63
2022/08/17 02:59:53;;;;;;;12.07;10.07;;;19.20;22.70;;;;;;5085739;28;20551;-64
2022/08/17 03:02:20;;;;;;;14.00;11.10;;;19.10;22.70;;;;;;5086684;27;20583;-63
2022/08/17 03:04:48;;;;;;;14.50;9.63;;;19.10;22.90;;;;;;5084571;28;20483;-63
2022/08/17 03:07:15;;;;;;;13.40;11.27;;;19.10;22.90;;;;;;5086376;28;20467;-65
2022/08/17 03:09:42;;;;;;;12.53;10.93;;;19.10;22.80;;;;;;5090446;28;20675;-64
2022/08/17 03:12:12;;;;;;;12.47;11.20;;;19.10;22.90;;;;;;5086127;28;20468;-65
2022/08/17 03:14:39;;;;;;;12.67;10.93;;;19.10;23.10;;;;;;5081645;28;20484;-63
2022/08/17 03:17:06;;;;;;;13.57;11.10;;;19.00;23.40;;;;;;5082191;28;20456;-63
2022/08/17 03:19:33;;;;;;;15.90;11.67;;;18.90;23.40;;;;;;5087832;28;20452;-65
2022/08/17 03:22:01;;;;;;;11.87;10.60;;;18.90;23.30;;;;;;5091218;28;20464;-64
2022/08/17 03:24:28;;;;;;;14.50;10.97;;;18.90;23.40;;;;;;5090907;28;20487;-64
2022/08/17 03:26:54;;;;;;;14.10;11.63;;;18.90;23.30;;;;;;5090802;28;20812;-64
2022/08/17 03:29:21;;;;;;;15.70;11.83;;;18.90;23.50;;;;;;5090224;28;20479;-64
2022/08/17 03:31:48;;;;;;;14.33;12.50;;;18.90;23.60;;;;;;5087084;27;20816;-63
2022/08/17 03:34:16;;;;;;;15.50;11.50;;;18.90;23.50;;;;;;5089048;28;20986;-64
2022/08/17 03:36:43;;;;;;;12.90;10.93;;;18.90;23.60;;;;;;5088205;28;20453;-63
2022/08/17 03:39:12;;;;;;;14.80;10.90;;;18.80;23.70;;;;;;5091494;28;20448;-64
2022/08/17 03:41:39;;;;;;;15.03;11.90;;;18.80;23.80;;;;;;5094147;28;20693;-64
2022/08/17 03:44:06;;;;;;;13.83;11.70;;;18.80;23.70;;;;;;5090923;28;20476;-64
2022/08/17 03:57:31;;;;;;;12.13;10.90;;;18.70;24.40;;;;;;5089616;28;20493;-64
2022/08/17 03:59:58;;;;;;;13.30;10.67;;;18.70;24.10;;;;;;5090487;28;20452;-64
2022/08/17 04:02:31;;;;;;;12.70;10.23;;;18.70;24.50;;;;;;5080376;27;20476;-63
2022/08/17 04:04:59;;;;;;;12.63;11.33;;;18.70;24.40;;;;;;5088468;28;20479;-63
2022/08/17 04:07:29;;;;;;;12.83;11.00;;;18.80;24.00;;;;;;5079236;28;20459;-63
2022/08/17 04:09:58;;;;;;;13.30;10.80;;;18.80;23.90;;;;;;5083677;28;20475;-62
2022/08/17 04:12:29;;;;;;;16.90;11.60;;;18.90;23.90;;;;;;5089072;28;20523;-64
2022/08/17 04:14:56;;;;;;;15.20;12.10;;;18.90;24.00;;;;;;5082859;28;20666;-63
2022/08/17 04:17:25;;;;;;;14.40;11.00;;;18.90;23.80;;;;;;5086011;28;20451;-64
2022/08/17 04:19:52;;;;;;;13.10;10.97;;;18.90;23.90;;;;;;5087991;28;20460;-63
2022/08/17 04:22:19;;;;;;;13.20;10.47;;;18.90;23.70;;;;;;5085752;28;20464;-64
2022/08/17 04:24:46;;;;;;;12.20;9.40;;;19.00;23.60;;;;;;5083415;28;20975;-64
2022/08/17 04:27:14;;;;;;;12.40;9.20;;;19.00;23.20;;;;;;5084655;28;20463;-64
2022/08/17 04:29:40;;;;;;;10.40;9.03;;;19.00;23.10;;;;;;5080849;28;20473;-65
2022/08/17 04:32:07;;;;;;;12.73;9.07;;;19.00;23.10;;;;;;5090203;27;20476;-59
2022/08/17 04:34:34;;;;;;;15.90;10.70;;;19.10;23.10;;;;;;5087426;28;20480;-62
2022/08/17 04:37:01;;;;;;;11.80;9.93;;;19.10;23.10;;;;;;5084243;28;20456;-60
2022/08/17 04:39:27;;;;;;;11.40;9.87;;;19.10;22.80;;;;;;5081486;28;20539;-61
2022/08/17 04:42:05;;;;;;;12.27;9.40;;;19.20;22.50;;;;;;5081623;28;20452;-64
2022/08/17 04:44:34;;;;;;;13.50;9.63;;;19.20;22.50;;;;;;5077122;28;20486;-68
2022/08/17 04:47:01;;;;;;;11.90;8.70;;;19.20;22.70;;;;;;5083044;28;20496;-65
2022/08/17 04:49:28;;;;;;;11.03;8.87;;;19.20;22.70;;;;;;5081555;28;21026;-65
2022/08/17 04:51:54;;;;;;;12.53;10.10;;;19.30;22.50;;;;;;5082243;28;20463;-65
2022/08/17 04:54:22;;;;;;;13.70;8.97;;;19.30;23.30;;;;;;5087252;28;20484;-64
2022/08/17 04:56:48;;;;;;;11.60;9.70;;;19.40;23.50;;;;;;5080941;28;20460;-65
2022/08/17 04:59:17;;;;;;;11.33;10.10;;;19.40;23.90;;;;;;5083298;28;20982;-65
2022/08/17 05:01:48;;;;;;;10.47;8.93;;;19.40;23.60;;;;;;5089093;27;20478;-64
2022/08/17 05:04:17;;;;;;;13.03;10.20;;;19.60;23.20;;;;;;5086144;28;20476;-65
2022/08/17 05:06:44;;;;;;;13.67;9.80;;;19.80;22.40;;;;;;5083908;28;20825;-66
2022/08/17 05:09:11;;;;;;;12.20;10.47;;;19.90;22.00;;;;;;5086593;28;21022;-65
2022/08/17 05:11:38;;;;;;;14.53;10.43;;;20.00;21.90;;;;;;5084936;28;20452;-66
2022/08/17 05:14:05;;;;;;;16.10;10.30;;;20.10;23.20;;;;;;5085131;28;20483;-65
2022/08/17 05:16:32;;;;;;;12.63;10.80;;;20.30;22.40;;;;;;5082245;28;20467;-65
2022/08/17 05:19:01;;;;;;;11.80;10.40;;;20.50;21.80;;;;;;5087716;28;21142;-64
2022/08/17 05:21:28;;;;;;;10.80;9.70;;;20.70;21.20;;;;;;5087688;28;20454;-64
2022/08/17 05:23:57;;;;;;;13.23;9.83;;;20.90;20.70;;;;;;5080183;28;20488;-65
2022/08/17 05:26:25;;;;;;;14.80;9.40;;;21.30;19.60;;;;;;5087339;28;20456;-64
2022/08/17 05:28:52;;;;;;;11.53;9.30;;;21.80;18.00;;;;;;5084592;28;20467;-66
2022/08/17 05:31:18;;;;;;;10.37;9.23;;;22.50;16.40;;;;;;5085495;27;20475;-64
2022/08/17 05:33:45;;;;;;;12.87;9.30;;;23.50;14.70;;;;;;5080280;28;20484;-65
2022/08/17 05:36:15;;;;;;;11.70;9.23;;;24.50;13.00;;;;;;5080599;28;21270;-67
2022/08/17 05:38:42;;;;;;;8.47;7.40;;;25.70;10.90;;;;;;5085794;28;20841;-69
2022/08/17 05:41:10;;;;;;;8.80;7.67;;;26.80;8.70;;;;;;5082132;28;20461;-70
2022/08/17 05:43:39;;;;;;;9.70;7.70;;;28.00;7.20;;;;;;5082953;28;20485;-69
2022/08/17 05:46:12;;;;;;;9.10;8.00;;;29.20;5.50;;;;;;5086736;28;20990;-71
2022/08/17 05:48:42;;;;;;;9.20;7.40;;;30.20;3.00;;;;;;5085553;28;20468;-68
2022/08/17 05:51:37;;;;;;;9.10;8.00;;;31.00;1.50;;;;;;5084140;28;20482;-67
2022/08/17 05:54:15;;;;;;;8.80;6.50;;;31.80;1.00;;;;;;5080068;28;20484;-68
2022/08/17 05:57:05;;;;;;;9.37;6.57;;;32.90;1.00;;;;;;5086361;28;20452;-68
2022/08/17 05:59:41;;;;;;;8.17;6.50;;;33.80;1.00;;;;;;5085115;28;20461;-68
2022/08/17 06:02:15;;;;;;;7.17;6.27;;;34.60;1.00;;;;;;5084131;27;20468;-70
2022/08/17 06:05:05;;;;;;;10.20;6.03;;;35.30;1.00;;;;;;5083340;28;20586;-69
2022/08/17 06:07:41;;;;;;;7.57;6.30;;;36.20;1.00;;;;;;5086265;28;20467;-70
2022/08/17 06:10:14;;;;;;;7.00;5.90;;;37.20;1.00;;;;;;5085995;28;20507;-70
2022/08/17 06:12:53;;;;;;;10.70;5.80;;;38.10;1.00;;;;;;5083546;28;21077;-68
2022/08/17 06:15:29;;;;;;;7.30;5.60;;;39.00;1.00;;;;;;5084790;28;20968;-68
2022/08/17 06:17:59;;;;;;;7.17;5.50;;;40.00;1.00;;;;;;5083669;28;20455;-70
2022/08/17 06:20:32;;;;;;;8.00;4.97;;;40.90;1.00;;;;;;5085988;28;21032;-69
2022/08/17 06:23:05;;;;;;;6.87;5.10;;;41.80;1.00;;;;;;5086970;28;20507;-70
2022/08/17 06:25:36;;;;;;;7.60;5.10;;;42.80;1.00;;;;;;5081823;28;20471;-70
2022/08/17 06:28:08;;;;;;;5.37;4.33;;;43.80;1.00;;;;;;5088075;28;20507;-70
2022/08/17 06:30:44;;;;;;;6.90;4.80;;;44.50;1.00;;;;;;5084045;27;20492;-69
2022/08/17 06:33:19;;;;;;;6.10;4.83;;;45.30;1.00;;;;;;5086525;28;20551;-69
2022/08/17 06:35:58;;;;;;;6.53;4.90;;;45.80;1.00;;;;;;5084299;28;20469;-73
2022/08/17 06:38:35;;;;;;;5.80;5.13;;;46.00;1.00;;;;;;5083641;28;20901;-71
2022/08/17 06:41:11;;;;;;;6.93;5.87;;;46.20;1.00;;;;;;5086744;28;20456;-69
2022/08/17 06:46:24;;;;;;;7.87;5.30;;;47.20;1.00;;;;;;5067397;22;20489;-71
2022/08/17 06:49:14;;;;;;;5.70;5.10;;;47.30;1.00;;;;;;5061857;28;21016;-70
2022/08/17 06:51:45;;;;;;;6.33;4.37;;;46.20;1.00;;;;;;5056687;28;20489;-70
2022/08/17 06:54:20;;;;;;;7.27;5.80;;;45.70;1.00;;;;;;5061622;28;20488;-69
2022/08/17 06:56:58;;;;;;;6.97;4.90;;;45.30;1.00;;;;;;5060569;28;20458;-70
2022/08/17 06:59:32;;;;;;;8.43;5.20;;;45.60;1.00;;;;;;5058970;28;20453;-70
2022/08/17 07:02:04;;;;;;;6.70;5.00;;;46.30;1.00;;;;;;5056394;28;20508;-70
2022/08/17 07:04:33;;;;;;;8.33;6.00;;;46.90;1.00;;;;;;5060121;28;20480;-71
2022/08/17 07:08:00;;;;;;;9.53;5.30;;;47.50;1.00;;;;;;5060977;28;20946;-70
2022/08/17 07:09:52;;;;;;;5.70;4.93;;;48.30;1.00;;;;;;5061238;28;20842;-71
2022/08/17 07:12:22;;;;;;;5.90;4.33;;;49.00;1.00;;;;;;5059995;28;20540;-71
2022/08/17 07:14:52;;;;;;;7.17;5.37;;;49.40;1.00;;;;;;5056045;28;20488;-73
2022/08/17 07:17:22;;;;;;;8.80;5.90;;;49.20;1.00;;;;;;5048560;28;20472;-70
2022/08/17 07:19:52;;;;;;;8.63;5.70;;;48.90;1.00;;;;;;5057744;28;20467;-70
2022/08/17 07:22:24;;;;;;;6.67;5.97;;;48.70;1.00;;;;;;5061338;28;20472;-70
2022/08/17 07:24:57;;;;;;;6.30;5.23;;;48.80;1.00;;;;;;5056635;28;20493;-71
2022/08/17 07:27:27;;;;;;;6.90;5.23;;;49.50;1.00;;;;;;5056036;28;20468;-71
2022/08/17 07:29:57;;;;;;;7.60;5.37;;;50.30;1.00;;;;;;5060874;28;20461;-71
2022/08/17 07:32:30;;;;;;;6.80;5.50;;;51.30;1.00;;;;;;5080189;28;20465;-71
2022/08/17 07:35:06;;;;;;;9.03;4.67;;;52.30;1.00;;;;;;5082786;28;20486;-71
2022/08/17 07:37:33;;;;;;;6.93;5.50;;;52.80;1.00;;;;;;5082088;28;20459;-70
2022/08/17 07:40:32;;;;;;;7.00;5.53;;;53.10;1.00;;;;;;5079141;28;20464;-71
2022/08/17 07:43:09;;;;;;;8.67;5.53;;;53.50;1.00;;;;;;5084670;28;20452;-68
2022/08/17 07:48:37;;;;;;;6.03;4.83;;;54.10;1.00;;;;;;5083947;28;20942;-70
2022/08/17 07:51:16;;;;;;;5.40;4.37;;;53.80;1.00;;;;;;5081140;28;20451;-69
2022/08/17 07:53:44;;;;;;;6.77;5.63;;;52.80;1.00;;;;;;5083720;28;20519;-75
2022/08/17 07:56:32;;;;;;;7.53;5.40;;;50.70;1.00;;;;;;5083371;28;20475;-69
2022/08/17 07:59:08;;;;;;;9.43;5.53;;;48.00;1.00;;;;;;5082855;28;20468;-72
2022/08/17 08:01:36;;;;;;;7.80;5.73;;;45.70;1.00;;;;;;5086157;28;20502;-69
2022/08/17 08:04:16;;;;;;;7.73;6.03;;;44.00;1.00;;;;;;5085047;28;20486;-73
2022/08/17 08:06:51;;;;;;;9.50;6.60;;;42.80;1.00;;;;;;5088859;28;20460;-70
2022/08/17 08:09:31;;;;;;;8.07;5.80;;;41.90;1.00;;;;;;5082342;28;21124;-69
2022/08/17 08:12:00;;;;;;;5.87;5.23;;;42.20;1.00;;;;;;5088831;28;20452;-69
2022/08/17 08:14:31;;;;;;;10.40;5.80;;;43.20;1.00;;;;;;5093164;28;20478;-70
2022/08/17 08:17:00;;;;;;;6.67;4.90;;;44.10;1.00;;;;;;5089212;28;20466;-70
2022/08/17 08:19:28;;;;;;;6.20;5.47;;;45.60;1.00;;;;;;5085181;28;20459;-71
2022/08/17 08:22:05;;;;;;;7.63;5.27;;;47.30;1.00;;;;;;5083264;28;20476;-70
2022/08/17 08:24:55;;;;;;;5.70;4.60;;;49.10;1.00;;;;;;5081861;28;21256;-68
2022/08/17 08:27:37;;;;;;;5.77;4.13;;;50.90;1.00;;;;;;5081608;28;20463;-69
2022/08/17 08:30:08;;;;;;;5.50;4.50;;;52.20;1.00;;;;;;5079720;28;20554;-72
2022/08/17 08:32:49;;;;;;;5.90;4.50;;;53.00;1.00;;;;;;5084522;28;20948;-69
2022/08/17 08:35:25;;;;;;;4.93;3.30;;;53.80;1.00;;;;;;5085601;28;20482;-70
2022/08/17 08:38:02;;;;;;;7.00;4.20;;;55.10;1.00;;;;;;5082571;28;20457;-69
2022/08/17 08:40:38;;;;;;;5.57;3.93;;;56.20;1.00;;;;;;5085330;28;20456;-72
2022/08/17 08:43:17;;;;;;;6.67;4.10;;;57.00;1.00;;;;;;5088674;28;20529;-70
2022/08/17 08:45:51;;;;;;;5.60;3.83;;;57.80;1.00;;;;;;5081937;28;20290;-71
2022/08/17 08:48:37;;;;;;;5.28;3.50;;;58.60;1.00;;;;;;5083637;28;20233;-69
2022/08/17 08:51:12;;;;;;;10.00;4.47;;;57.50;1.00;;;;;;5080026;28;20190;-70
2022/08/17 08:53:47;;;;;;;9.13;4.10;;;54.80;1.00;;;;;;5087048;28;20874;-68
2022/08/17 08:59:04;;;;;;;5.10;3.70;;;50.30;1.00;;;;;;5075107;28;20464;-65
2022/08/17 09:01:37;;;;;;;6.53;4.10;;;48.30;1.00;;;;;;5078768;28;20579;-66
2022/08/17 09:04:17;;;;;;;6.17;4.60;;;46.40;1.00;;;;;;5071163;28;20477;-65
2022/08/17 09:06:56;;;;;;;5.90;5.10;;;46.00;1.00;;;;;;5068136;28;20459;-65
2022/08/17 09:09:35;;;;;;;7.13;6.00;;;47.80;1.00;;;;;;5061337;28;20990;-65
2022/08/17 09:12:12;;;;;;;5.93;4.50;;;49.40;1.00;;;;;;5060696;28;20461;-64
2022/08/17 09:14:48;;;;;;;6.90;4.70;;;51.20;1.00;;;;;;5056489;28;20521;-64
2022/08/17 09:17:20;;;;;;;7.53;5.70;;;52.50;1.00;;;;;;5057218;28;20464;-64
2022/08/17 09:19:54;;;;;;;6.87;5.50;;;51.90;1.00;;;;;;5059064;28;20547;-64
2022/08/17 09:22:32;;;;;;;6.73;4.40;;;49.50;1.00;;;;;;5063354;28;20469;-65
2022/08/17 09:25:06;;;;;;;8.30;5.50;;;47.30;1.00;;;;;;5069730;28;20875;-65
2022/08/17 09:27:52;;;;;;;6.70;5.57;;;45.70;1.00;;;;;;5065312;28;20545;-65
2022/08/17 09:30:21;;;;;;;8.40;4.60;;;44.40;1.00;;;;;;5068901;28;20838;-65
2022/08/17 09:32:53;;;;;;;6.53;5.00;;;43.10;1.00;;;;;;5062639;28;21037;-65
2022/08/17 09:35:23;;;;;;;7.70;4.83;;;42.20;1.00;;;;;;5067784;28;20511;-65
2022/08/17 09:38:02;;;;;;;5.00;4.07;;;41.40;1.00;;;;;;5064053;28;20980;-65
2022/08/17 09:40:33;;;;;;;8.23;5.57;;;40.70;1.00;;;;;;5061290;28;20460;-64
2022/08/17 09:43:06;;;;;;;5.50;4.70;;;40.00;1.00;;;;;;5066102;28;20513;-67
2022/08/17 09:45:41;;;;;;;6.10;4.93;;;39.30;1.00;;;;;;5058564;28;20903;-67
2022/08/17 09:48:14;;;;;;;12.03;5.83;;;39.20;1.00;;;;;;5058985;28;20456;-67
2022/08/17 09:50:45;;;;;;;5.10;4.23;;;38.90;1.00;;;;;;5058984;28;20518;-67
2022/08/17 09:53:12;;;;;;;7.50;5.03;;;39.10;1.00;;;;;;5065933;28;20481;-67
2022/08/17 09:55:51;;;;;;;7.17;6.00;;;40.00;1.00;;;;;;5054441;28;20498;-67
2022/08/17 09:58:28;;;;;;;6.33;5.37;;;41.40;1.00;;;;;;5076846;28;21001;-67
2022/08/17 10:01:03;;;;;;;7.50;3.93;;;43.20;1.00;;;;;;5082274;28;20480;-65
2022/08/17 10:03:47;;;;;;;5.63;4.20;;;45.50;1.00;;;;;;5080697;28;20553;-68
2022/08/17 10:06:21;;;;;;;5.43;4.40;;;47.00;1.00;;;;;;5083235;28;20452;-65
2022/08/17 10:08:56;;;;;;;5.60;4.20;;;47.80;1.00;;;;;;5083734;28;20451;-66
2022/08/17 10:14:20;;;;;;;5.73;4.60;;;47.20;1.00;;;;;;5087610;28;20468;-65
2022/08/17 10:16:54;;;;;;;6.70;4.10;;;45.10;1.00;;;;;;5085602;28;20455;-65
2022/08/17 10:19:28;;;;;;;6.90;4.73;;;43.50;1.00;;;;;;5084695;28;20455;-65
2022/08/17 10:27:39;;;;;;;6.33;4.37;;;41.30;1.00;;;;;;5083805;28;20978;-65
2022/08/17 10:30:12;;;;;;;7.83;4.63;;;41.10;1.00;;;;;;5095953;28;20455;-65
2022/08/17 10:32:47;;;;;;;5.67;5.07;;;42.30;1.00;;;;;;5081606;28;20572;-64
2022/08/17 10:35:26;;;;;;;6.70;5.10;;;42.30;1.00;;;;;;5085883;28;20452;-64
2022/08/17 10:38:22;;;;;;;6.83;4.77;;;41.40;1.00;;;;;;5090128;28;20480;-64
2022/08/17 10:40:57;;;;;;;5.77;4.40;;;40.50;1.00;;;;;;5078153;28;20478;-64
2022/08/17 10:43:33;;;;;;;5.90;4.77;;;39.90;1.00;;;;;;5088216;28;20472;-64
2022/08/17 10:46:12;;;;;;;9.13;4.40;;;39.60;1.00;;;;;;5088912;28;20463;-64
2022/08/17 10:48:41;;;;;;;6.83;4.77;;;39.50;1.00;;;;;;5085537;28;20453;-64
2022/08/17 10:51:11;;;;;;;6.40;4.13;;;39.50;1.00;;;;;;5084980;28;20449;-63
2022/08/17 10:54:00;;;;;;;4.87;3.47;;;39.30;1.00;;;;;;5081366;28;20575;-64
2022/08/17 10:56:43;;;;;;;7.60;5.20;;;38.90;1.00;;;;;;5086588;28;20456;-64
2022/08/17 10:59:30;;;;;;;6.10;4.37;;;38.90;1.00;;;;;;5085325;28;20456;-64
2022/08/17 11:02:17;;;;;;;5.57;4.33;;;39.00;1.00;;;;;;5082355;28;20474;-64
2022/08/17 11:05:08;;;;;;;5.77;3.87;;;39.00;1.00;;;;;;5085034;28;20813;-64
2022/08/17 11:08:04;;;;;;;5.60;4.67;;;39.00;1.00;;;;;;5090505;28;20464;-64
2022/08/17 11:10:53;;;;;;;7.20;4.63;;;38.80;1.00;;;;;;5080913;28;20874;-64
2022/08/17 11:13:28;;;;;;;7.57;4.70;;;38.60;1.00;;;;;;5088599;28;20558;-64
2022/08/17 11:16:07;;;;;;;8.13;5.23;;;38.60;1.00;;;;;;5087360;28;20443;-64
2022/08/17 11:19:07;;;;;;;6.47;4.67;;;38.60;1.00;;;;;;5083603;28;20451;-65
2022/08/17 11:21:53;;;;;;;7.87;4.30;;;38.50;1.00;;;;;;5081869;28;20568;-64
2022/08/17 11:24:22;;;;;;;5.60;4.37;;;38.30;1.00;;;;;;5077383;28;20472;-65
2022/08/17 11:27:03;;;;;;;8.20;4.40;;;38.20;1.00;;;;;;5095409;28;20537;-65
2022/08/17 11:29:35;;;;;;;7.10;4.70;;;37.80;1.00;;;;;;5082944;28;20448;-65
2022/08/17 11:32:10;;;;;;;5.93;4.30;;;37.50;1.00;;;;;;5076688;28;20490;-65
2022/08/17 11:34:39;;;;;;;6.03;4.33;;;37.30;1.00;;;;;;5085297;28;20607;-65
2022/08/17 11:37:32;;;;;;;5.60;4.23;;;37.20;1.00;;;;;;5088062;28;20444;-65
2022/08/17 11:40:14;;;;;;;5.70;4.00;;;37.20;1.00;;;;;;5082103;28;20966;-65
2022/08/17 11:43:08;;;;;;;6.67;4.60;;;37.10;1.00;;;;;;5087360;28;20472;-65
2022/08/17 11:45:54;;;;;;;5.93;4.50;;;37.00;1.00;;;;;;5084416;28;20471;-66
2022/08/17 11:51:34;;;;;;;7.10;4.30;;;36.60;1.00;;;;;;5086901;28;20456;-65
2022/08/17 11:54:31;;;;;;;7.40;4.63;;;36.50;1.00;;;;;;5083333;28;20488;-65
2022/08/17 11:57:01;;;;;;;6.07;4.27;;;36.30;1.00;;;;;;5078387;28;20559;-65
2022/08/17 11:59:54;;;;;;;8.27;4.17;;;36.30;1.00;;;;;;5092252;28;20463;-65
2022/08/17 12:02:42;;;;;;;6.00;3.73;;;36.20;1.00;;;;;;5080421;28;20481;-65
2022/08/17 12:05:31;;;;;;;4.53;3.47;;;35.90;1.00;;;;;;5089791;28;20540;-65
2022/08/17 12:08:18;;;;;;;6.23;4.20;;;35.70;1.00;;;;;;5074717;28;20546;-64
2022/08/17 12:10:58;;;;;;;5.67;3.90;;;35.70;1.00;;;;;;5088265;28;21013;-65
2022/08/17 12:13:27;;;;;;;5.83;4.50;;;35.60;1.00;;;;;;5090172;28;20567;-65
2022/08/17 12:15:55;;;;;;;6.47;4.70;;;35.60;1.00;;;;;;5085981;28;20456;-65
2022/08/17 12:18:26;;;;;;;5.10;3.93;;;35.70;1.00;;;;;;5088030;28;20901;-65
2022/08/17 12:21:22;;;;;;;8.93;4.67;;;35.80;1.00;;;;;;5092416;28;20451;-65
2022/08/17 12:23:57;;;;;;;6.03;3.70;;;35.90;1.00;;;;;;5088359;28;20521;-65
2022/08/17 12:26:30;;;;;;;6.43;4.20;;;35.90;1.00;;;;;;5081640;28;20463;-65
2022/08/17 12:29:00;;;;;;;5.10;3.70;;;35.50;1.00;;;;;;5079038;28;20947;-65
2022/08/17 12:31:31;;;;;;;7.53;4.10;;;35.20;1.00;;;;;;5090554;28;20480;-65
2022/08/17 12:33:59;;;;;;;5.33;3.20;;;35.20;1.00;;;;;;5089784;28;20568;-65
2022/08/17 12:36:28;;;;;;;6.00;2.87;;;35.20;1.00;;;;;;5076361;28;20460;-65
2022/08/17 12:39:02;;;;;;;7.80;3.90;;;35.20;1.00;;;;;;5088282;28;20483;-65
2022/08/17 12:41:34;;;;;;;7.00;3.30;;;35.20;1.00;;;;;;5079339;28;20898;-65
2022/08/17 12:44:03;;;;;;;6.60;3.63;;;35.00;1.00;;;;;;5086512;28;20479;-65
2022/08/17 12:46:33;;;;;;;5.33;4.20;;;34.80;1.00;;;;;;5087034;28;20983;-64
2022/08/17 12:49:21;;;;;;;6.30;3.77;;;34.50;1.00;;;;;;5086987;28;21172;-65
2022/08/17 12:51:50;;;;;;;7.23;4.57;;;34.50;1.00;;;;;;5087440;28;20442;-64
2022/08/17 12:54:25;;;;;;;7.03;4.60;;;34.40;1.00;;;;;;5083316;28;20480;-65
2022/08/17 12:56:54;;;;;;;10.93;4.60;;;34.30;1.00;;;;;;5082283;28;20545;-64
2022/08/17 12:59:23;;;;;;;10.40;4.67;;;34.20;1.00;;;;;;5093298;28;20451;-64
2022/08/17 13:01:50;;;;;;;5.60;3.70;;;34.10;1.00;;;;;;5085373;28;21083;-65
2022/08/17 13:04:19;;;;;;;7.30;3.87;;;33.90;1.00;;;;;;5088809;28;20479;-65
2022/08/17 13:06:50;;;;;;;8.03;4.03;;;33.80;1.00;;;;;;5087755;28;20530;-65
2022/08/17 13:09:23;;;;;;;5.83;4.53;;;33.50;1.00;;;;;;5081653;28;20463;-64
2022/08/17 13:11:52;;;;;;;6.47;4.50;;;33.30;1.00;;;;;;5085179;28;20961;-64
2022/08/17 13:14:20;;;;;;;6.97;4.97;;;33.00;1.00;;;;;;5082784;28;20484;-65
2022/08/17 13:16:51;;;;;;;7.43;4.27;;;32.80;1.00;;;;;;5082762;28;20556;-65
2022/08/17 13:19:20;;;;;;;6.93;4.43;;;32.60;1.00;;;;;;5085555;28;20541;-65
2022/08/17 13:21:51;;;;;;;6.70;4.23;;;32.40;1.00;;;;;;5084207;28;20527;-65
2022/08/17 13:24:20;;;;;;;8.20;5.07;;;32.30;1.00;;;;;;5081125;28;20501;-65
2022/08/17 13:26:53;;;;;;;5.13;3.70;;;32.10;1.00;;;;;;5086908;28;20885;-65
2022/08/17 13:29:27;;;;;;;6.37;3.80;;;31.90;1.00;;;;;;5081237;28;20546;-65
2022/08/17 13:31:57;;;;;;;9.67;5.50;;;31.70;1.00;;;;;;5083493;28;20468;-65
2022/08/17 13:34:40;;;;;;;7.87;4.50;;;31.60;1.00;;;;;;5082606;28;20476;-65
2022/08/17 13:37:28;;;;;;;5.20;3.77;;;31.50;1.00;;;;;;5080190;28;20463;-65
2022/08/17 13:39:57;;;;;;;8.60;4.80;;;31.50;1.00;;;;;;5078672;28;20500;-65
2022/08/17 13:42:46;;;;;;;7.17;4.43;;;31.40;1.00;;;;;;5082435;28;20483;-64
2022/08/17 13:45:43;;;;;;;6.90;4.27;;;31.30;1.00;;;;;;5088231;28;20455;-68